createdAt,value
2023-04-14T00:01:53.187Z,99.90
2023-04-14T00:04:20.778Z,99.90
2023-04-14T00:06:47.578Z,99.90
2023-04-14T00:09:14.638Z,99.90
2023-04-14T00:11:42.488Z,99.90
2023-04-14T00:14:09.576Z,99.90
2023-04-14T00:16:39.492Z,99.90
2023-04-14T00:19:06.494Z,99.90
2023-04-14T00:21:33.142Z,99.90
2023-04-14T00:24:00.214Z,99.90
2023-04-14T00:26:27.266Z,99.90
2023-04-14T00:28:54.263Z,99.90
2023-04-14T00:31:22.232Z,99.90
2023-04-14T00:33:49.198Z,99.90
2023-04-14T00:36:16.259Z,99.90
2023-04-14T00:38:44.168Z,99.90
2023-04-14T00:41:11.168Z,99.90
2023-04-14T00:43:39.033Z,99.90
2023-04-14T00:46:07.047Z,99.90
2023-04-14T00:48:34.335Z,99.90
2023-04-14T00:51:01.991Z,99.90
2023-04-14T00:53:29.056Z,99.90
2023-04-14T00:55:56.115Z,99.90
2023-04-14T00:58:25.282Z,99.90
2023-04-14T01:00:55.441Z,99.90
2023-04-14T01:03:24.610Z,99.90
2023-04-14T01:05:51.992Z,99.90
2023-04-14T01:08:21.845Z,99.90
2023-04-14T01:11:05.103Z,99.90
2023-04-14T01:13:46.907Z,99.90
2023-04-14T01:16:38.952Z,99.90
2023-04-14T01:19:11.481Z,99.90
2023-04-14T01:21:42.418Z,99.90
2023-04-14T01:24:13.567Z,99.90
2023-04-14T01:26:42.409Z,99.90
2023-04-14T01:29:38.723Z,99.90
2023-04-14T01:32:10.483Z,99.90
2023-04-14T01:34:56.635Z,99.90
2023-04-14T01:37:34.324Z,99.90
2023-04-14T01:40:05.814Z,99.90
2023-04-14T01:42:36.152Z,99.90
2023-04-14T01:45:10.864Z,99.90
2023-04-14T01:47:38.445Z,99.90
2023-04-14T01:50:07.134Z,99.90
2023-04-14T01:52:36.118Z,99.90
2023-04-14T01:55:06.586Z,99.90
2023-04-14T01:57:36.185Z,99.90
2023-04-14T02:00:05.080Z,99.90
2023-04-14T02:02:37.665Z,99.90
2023-04-14T02:05:08.310Z,99.90
2023-04-14T02:07:37.068Z,99.90
2023-04-14T02:10:05.903Z,99.90
2023-04-14T02:12:33.445Z,99.90
2023-04-14T02:15:02.001Z,99.90
2023-04-14T02:17:30.866Z,99.90
2023-04-14T02:20:00.887Z,99.90
2023-04-14T02:22:29.788Z,99.90
2023-04-14T02:24:56.775Z,99.90
2023-04-14T02:27:38.556Z,99.90
2023-04-14T02:30:14.776Z,99.90
2023-04-14T02:32:48.119Z,99.90
2023-04-14T02:35:21.859Z,99.90
2023-04-14T02:37:53.914Z,99.90
2023-04-14T02:40:26.948Z,99.90
2023-04-14T02:43:00.702Z,99.90
2023-04-14T02:45:32.171Z,99.90
2023-04-14T02:48:06.997Z,99.90
2023-04-14T02:50:34.649Z,99.90
2023-04-14T02:53:03.164Z,99.90
2023-04-14T02:55:31.621Z,99.90
2023-04-14T02:58:00.353Z,99.90
2023-04-14T03:00:28.208Z,99.90
2023-04-14T03:02:57.778Z,99.90
2023-04-14T03:05:25.566Z,99.90
2023-04-14T03:07:55.223Z,99.90
2023-04-14T03:10:23.457Z,99.90
2023-04-14T03:12:51.390Z,99.90
2023-04-14T03:15:20.645Z,99.90
2023-04-14T03:17:54.115Z,99.90
2023-04-14T03:20:23.325Z,99.90
2023-04-14T03:23:06.382Z,99.90
2023-04-14T03:25:39.923Z,99.90
2023-04-14T03:28:10.559Z,99.90
2023-04-14T03:30:41.652Z,99.90
2023-04-14T03:33:12.453Z,99.90
2023-04-14T03:35:40.365Z,99.90
2023-04-14T03:38:10.880Z,99.90
2023-04-14T03:40:41.271Z,99.90
2023-04-14T03:43:12.206Z,99.90
2023-04-14T03:45:40.497Z,99.90
2023-04-14T03:48:11.852Z,99.90
2023-04-14T03:50:42.092Z,99.90
2023-04-14T03:53:12.658Z,99.90
2023-04-14T03:55:42.387Z,99.90
2023-04-14T03:58:11.139Z,99.90
2023-04-14T04:00:38.902Z,99.90
2023-04-14T04:03:06.258Z,99.90
2023-04-14T04:05:34.645Z,99.90
2023-04-14T04:08:03.825Z,99.90
2023-04-14T04:10:34.452Z,99.90
2023-04-14T04:13:10.545Z,99.90
2023-04-14T04:15:40.830Z,99.90
2023-04-14T04:18:10.414Z,99.90
2023-04-14T04:20:38.717Z,99.90
2023-04-14T04:23:08.213Z,99.90
2023-04-14T04:25:40.492Z,99.90
2023-04-14T04:28:07.713Z,99.90
2023-04-14T04:30:38.572Z,99.90
2023-04-14T04:33:07.141Z,99.90
2023-04-14T04:35:36.110Z,99.90
2023-04-14T04:38:03.101Z,99.90
2023-04-14T04:40:37.437Z,99.90
2023-04-14T04:43:05.199Z,99.90
2023-04-14T04:45:53.447Z,99.90
2023-04-14T04:48:20.147Z,99.90
2023-04-14T04:50:47.202Z,99.90
2023-04-14T04:53:14.288Z,99.90
2023-04-14T04:55:42.422Z,99.90
2023-04-14T04:58:10.509Z,99.90
2023-04-14T05:00:37.222Z,99.90
2023-04-14T05:03:04.247Z,99.90
2023-04-14T05:05:35.946Z,99.90
2023-04-14T05:08:02.971Z,99.90
2023-04-14T05:10:29.714Z,99.90
2023-04-14T05:12:56.779Z,99.90
2023-04-14T05:15:23.778Z,99.90
2023-04-14T05:17:51.153Z,99.90
2023-04-14T05:20:21.233Z,99.90
2023-04-14T05:22:48.194Z,99.90
2023-04-14T05:25:14.876Z,99.90
2023-04-14T05:27:41.888Z,99.90
2023-04-14T05:30:09.030Z,99.90
2023-04-14T05:32:36.842Z,99.90
2023-04-14T05:35:05.238Z,99.90
2023-04-14T05:37:33.060Z,99.90
2023-04-14T05:40:01.340Z,99.90
2023-04-14T05:42:28.292Z,99.90
2023-04-14T05:44:56.381Z,99.90
2023-04-14T05:47:23.347Z,99.90
2023-04-14T05:49:51.515Z,99.90
2023-04-14T05:52:20.630Z,99.90
2023-04-14T05:54:47.601Z,99.90
2023-04-14T05:57:14.237Z,99.90
2023-04-14T05:59:42.269Z,99.90
2023-04-14T06:02:09.286Z,99.90
2023-04-14T06:04:36.308Z,99.90
2023-04-14T06:07:03.940Z,99.90
2023-04-14T06:09:31.520Z,99.90
2023-04-14T06:11:59.523Z,99.90
2023-04-14T06:14:26.549Z,99.90
2023-04-14T06:16:54.641Z,99.90
2023-04-14T06:19:21.575Z,99.90
2023-04-14T06:21:50.514Z,99.90
2023-04-14T06:24:17.616Z,99.90
2023-04-14T06:26:45.650Z,99.90
2023-04-14T06:29:12.581Z,99.90
2023-04-14T06:31:39.726Z,99.90
2023-04-14T06:34:06.573Z,99.90
2023-04-14T06:36:33.665Z,99.90
2023-04-14T06:39:01.413Z,99.90
2023-04-14T06:41:28.510Z,99.90
2023-04-14T06:43:55.741Z,99.90
2023-04-14T06:46:22.723Z,99.90
2023-04-14T06:48:49.628Z,99.90
2023-04-14T06:51:16.439Z,99.90
2023-04-14T06:53:43.311Z,99.90
2023-04-14T06:56:10.370Z,99.90
2023-04-14T06:58:38.339Z,99.90
2023-04-14T07:01:05.637Z,99.90
2023-04-14T07:03:32.471Z,99.90
2023-04-14T07:06:03.960Z,99.90
2023-04-14T07:08:32.862Z,99.90
2023-04-14T07:11:02.802Z,99.90
2023-04-14T07:13:30.038Z,99.90
2023-04-14T07:15:57.864Z,99.90
2023-04-14T07:18:24.969Z,99.90
2023-04-14T07:20:52.796Z,99.90
2023-04-14T07:23:22.689Z,99.70
2023-04-14T07:25:52.676Z,97.70
2023-04-14T07:28:21.363Z,95.50
2023-04-14T07:30:48.743Z,94.30
2023-04-14T07:33:21.982Z,92.70
2023-04-14T07:36:01.345Z,90.00
2023-04-14T07:38:30.160Z,88.10
2023-04-14T07:40:57.537Z,86.90
2023-04-14T07:43:24.613Z,89.00
2023-04-14T07:45:53.017Z,87.70
2023-04-14T07:48:21.426Z,88.70
2023-04-14T07:50:52.379Z,85.90
2023-04-14T07:53:19.187Z,84.80
2023-04-14T07:55:47.067Z,83.20
2023-04-14T07:58:16.048Z,83.80
2023-04-14T08:00:43.453Z,83.30
2023-04-14T08:03:10.429Z,81.80
2023-04-14T08:05:37.886Z,82.10
2023-04-14T08:08:04.938Z,80.40
2023-04-14T08:10:31.928Z,79.10
2023-04-14T08:12:59.378Z,80.00
2023-04-14T08:15:27.542Z,80.70
2023-04-14T08:17:54.642Z,80.50
2023-04-14T08:20:21.439Z,80.00
2023-04-14T08:22:48.315Z,80.40
2023-04-14T08:25:15.612Z,82.60
2023-04-14T08:27:42.366Z,82.20
2023-04-14T08:30:10.317Z,84.00
2023-04-14T08:32:38.383Z,82.20
2023-04-14T08:35:36.199Z,80.20
2023-04-14T08:37:53.500Z,80.40
2023-04-14T08:40:22.492Z,79.80
2023-04-14T08:42:50.504Z,79.90
2023-04-14T08:45:19.896Z,79.10
2023-04-14T08:47:50.833Z,81.00
2023-04-14T08:50:22.375Z,78.60
2023-04-14T08:52:55.155Z,79.50
2023-04-14T08:55:24.112Z,79.00
2023-04-14T08:57:51.701Z,77.40
2023-04-14T09:00:19.522Z,77.00
2023-04-14T09:02:47.287Z,76.70
2023-04-14T09:05:15.336Z,76.00
2023-04-14T09:07:42.842Z,73.70
2023-04-14T09:10:11.290Z,74.00
2023-04-14T09:12:41.665Z,74.30
2023-04-14T09:15:09.713Z,77.30
2023-04-14T09:17:37.291Z,76.50
2023-04-14T09:20:36.196Z,74.50
2023-04-14T09:22:53.379Z,74.00
2023-04-14T09:25:21.364Z,75.40
2023-04-14T09:27:51.484Z,75.80
2023-04-14T09:30:18.591Z,76.90
2023-04-14T09:32:45.551Z,77.90
2023-04-14T09:35:14.154Z,77.10
2023-04-14T09:37:46.322Z,75.20
2023-04-14T09:40:30.100Z,73.20
2023-04-14T09:42:57.473Z,75.60
2023-04-14T09:45:45.181Z,80.10
2023-04-14T09:48:13.077Z,84.60
2023-04-14T09:51:07.005Z,86.70
2023-04-14T09:53:39.142Z,89.20
2023-04-14T09:56:12.385Z,87.50
2023-04-14T09:58:41.285Z,82.50
2023-04-14T10:01:12.931Z,80.60
2023-04-14T10:03:42.079Z,77.40
2023-04-14T10:06:17.069Z,74.50
2023-04-14T10:08:49.090Z,74.50
2023-04-14T10:11:26.584Z,75.90
2023-04-14T10:14:02.674Z,75.70
2023-04-14T10:16:29.967Z,74.70
2023-04-14T10:18:58.322Z,75.00
2023-04-14T10:21:27.606Z,76.80
2023-04-14T10:23:57.601Z,79.30
2023-04-14T10:26:26.769Z,83.10
2023-04-14T10:28:55.525Z,85.60
2023-04-14T10:31:32.170Z,81.70
2023-04-14T10:34:06.373Z,79.10
2023-04-14T10:36:36.691Z,78.30
2023-04-14T10:39:05.432Z,78.90
2023-04-14T10:41:47.361Z,81.50
2023-04-14T10:44:28.236Z,84.20
2023-04-14T10:47:02.048Z,84.30
2023-04-14T10:49:34.608Z,83.70
2023-04-14T10:52:25.224Z,84.90
2023-04-14T10:55:00.898Z,81.10
2023-04-14T10:57:29.693Z,73.90
2023-04-14T11:00:00.256Z,71.20
2023-04-14T11:02:30.346Z,70.50
2023-04-14T11:05:09.106Z,74.20
2023-04-14T11:07:51.696Z,76.40
2023-04-14T11:10:21.915Z,78.10
2023-04-14T11:13:10.222Z,77.00
2023-04-14T11:16:04.191Z,72.50
2023-04-14T11:21:10.626Z,69.40
2023-04-14T11:23:38.424Z,67.90
2023-04-14T11:26:07.011Z,66.00
2023-04-14T11:28:42.040Z,65.80
2023-04-14T11:31:11.383Z,65.00
2023-04-14T11:33:41.371Z,67.70
2023-04-14T11:36:10.618Z,69.70
2023-04-14T11:38:41.133Z,69.10
2023-04-14T11:41:09.268Z,71.50
2023-04-14T11:43:37.916Z,69.60
2023-04-14T11:46:08.461Z,65.90
2023-04-14T11:48:36.883Z,66.00
2023-04-14T11:51:05.515Z,69.40
2023-04-14T11:53:33.227Z,71.30
2023-04-14T11:56:00.910Z,73.80
2023-04-14T11:58:28.757Z,73.10
2023-04-14T12:00:57.555Z,72.30
2023-04-14T12:03:30.967Z,70.10
2023-04-14T12:08:52.231Z,69.40
2023-04-14T12:11:20.508Z,66.90
2023-04-14T12:13:47.829Z,65.70
2023-04-14T12:16:17.579Z,66.30
2023-04-14T12:18:44.801Z,65.80
2023-04-14T12:21:17.667Z,63.90
2023-04-14T12:23:48.579Z,64.90
2023-04-14T12:26:15.960Z,68.90
2023-04-14T12:28:44.850Z,70.90
2023-04-14T12:31:11.913Z,67.50
2023-04-14T12:33:38.814Z,65.40
2023-04-14T12:36:07.952Z,64.70
2023-04-14T12:38:35.299Z,66.30
2023-04-14T12:41:02.466Z,66.50
2023-04-14T12:43:34.666Z,68.60
2023-04-14T12:46:05.705Z,69.70
2023-04-14T12:48:46.791Z,67.40
2023-04-14T12:51:17.004Z,69.70
2023-04-14T12:53:45.445Z,68.10
2023-04-14T12:56:17.676Z,70.90
2023-04-14T12:58:47.298Z,74.80
2023-04-14T13:01:15.323Z,76.70
2023-04-14T13:03:49.582Z,78.10
2023-04-14T13:06:19.792Z,80.50
2023-04-14T13:08:54.662Z,83.00
2023-04-14T13:11:23.598Z,82.60
2023-04-14T13:13:54.186Z,83.40
2023-04-14T13:16:22.106Z,84.50
2023-04-14T13:18:49.318Z,84.30
2023-04-14T13:21:17.380Z,85.70
2023-04-14T13:23:44.177Z,84.60
2023-04-14T13:26:11.550Z,83.90
2023-04-14T13:28:38.613Z,83.80
2023-04-14T13:31:05.672Z,84.30
2023-04-14T13:33:33.167Z,83.90
2023-04-14T13:36:01.944Z,82.50
2023-04-14T13:38:28.858Z,83.60
2023-04-14T13:40:55.914Z,83.80
2023-04-14T13:43:23.407Z,85.30
2023-04-14T13:45:50.662Z,86.20
2023-04-14T13:48:17.449Z,85.30
2023-04-14T13:50:44.509Z,85.60
2023-04-14T13:53:12.323Z,85.80
2023-04-14T13:55:39.459Z,85.10
2023-04-14T13:58:06.635Z,83.80
2023-04-14T14:00:33.389Z,84.40
2023-04-14T14:03:00.878Z,84.30
2023-04-14T14:05:28.003Z,86.40
2023-04-14T14:07:56.750Z,90.90
2023-04-14T14:10:23.741Z,93.40
2023-04-14T14:12:50.717Z,96.30
2023-04-14T14:15:18.811Z,96.80
2023-04-14T14:17:45.781Z,97.60
2023-04-14T14:20:13.162Z,97.90
2023-04-14T14:22:39.956Z,96.00
2023-04-14T14:25:19.546Z,94.20
2023-04-14T14:27:48.464Z,94.30
2023-04-14T14:30:15.682Z,93.70
2023-04-14T14:32:42.393Z,94.10
2023-04-14T14:35:09.731Z,94.20
2023-04-14T14:37:36.666Z,95.60
2023-04-14T14:40:04.183Z,95.70
2023-04-14T14:42:32.613Z,95.90
2023-04-14T14:44:59.669Z,96.20
2023-04-14T14:47:28.822Z,95.80
2023-04-14T14:50:01.683Z,96.20
2023-04-14T14:52:31.397Z,96.20
2023-04-14T14:54:58.134Z,96.10
2023-04-14T14:57:25.932Z,94.70
2023-04-14T14:59:53.393Z,95.00
2023-04-14T15:02:23.581Z,94.00
2023-04-14T15:04:50.870Z,92.60
2023-04-14T15:07:18.019Z,93.30
2023-04-14T15:09:48.869Z,93.50
2023-04-14T15:12:15.873Z,93.80
2023-04-14T15:14:42.905Z,93.60
2023-04-14T15:17:09.815Z,94.10
2023-04-14T15:19:37.683Z,94.30
2023-04-14T15:22:04.426Z,94.00
2023-04-14T15:24:31.481Z,94.40
2023-04-14T15:26:58.560Z,94.10
2023-04-14T15:29:26.504Z,93.70
2023-04-14T15:31:53.552Z,92.70
2023-04-14T15:34:21.380Z,92.10
2023-04-14T15:36:48.457Z,92.30
2023-04-14T15:39:15.675Z,91.60
2023-04-14T15:41:42.556Z,90.50
2023-04-14T15:44:10.359Z,90.60
2023-04-14T15:46:37.354Z,90.80
2023-04-14T15:49:04.082Z,90.80
2023-04-14T15:51:31.190Z,90.10
2023-04-14T15:53:58.096Z,89.60
2023-04-14T15:56:25.845Z,88.90
2023-04-14T15:58:52.605Z,88.80
2023-04-14T16:01:19.853Z,90.50
2023-04-14T16:03:46.843Z,90.00
2023-04-14T16:06:13.969Z,90.90
2023-04-14T16:08:42.072Z,91.50
2023-04-14T16:11:15.135Z,91.00
2023-04-14T16:13:43.950Z,91.20
2023-04-14T16:16:13.462Z,91.20
2023-04-14T16:18:40.498Z,91.00
2023-04-14T16:21:07.948Z,91.50
2023-04-14T16:23:34.992Z,91.00
2023-04-14T16:26:02.047Z,91.50
2023-04-14T16:28:28.922Z,90.60
2023-04-14T16:30:59.393Z,90.70
2023-04-14T16:33:27.435Z,89.40
2023-04-14T16:35:56.945Z,89.70
2023-04-14T16:38:23.957Z,88.30
2023-04-14T16:40:58.335Z,90.30
2023-04-14T16:43:27.495Z,90.40
2023-04-14T16:46:04.119Z,90.30
2023-04-14T16:48:32.342Z,90.80
2023-04-14T16:51:06.943Z,93.40
2023-04-14T16:53:38.645Z,93.20
2023-04-14T16:56:07.337Z,94.00
2023-04-14T16:58:34.966Z,95.20
2023-04-14T17:01:01.817Z,96.00
2023-04-14T17:03:29.222Z,95.50
2023-04-14T17:05:56.426Z,95.70
2023-04-14T17:08:23.438Z,94.10
2023-04-14T17:10:50.632Z,93.50
2023-04-14T17:13:17.406Z,93.70
2023-04-14T17:15:44.594Z,93.20
2023-04-14T17:18:12.533Z,93.30
2023-04-14T17:20:40.960Z,93.50
2023-04-14T17:23:10.120Z,93.80
2023-04-14T17:25:37.925Z,93.90
2023-04-14T17:28:05.874Z,94.20
2023-04-14T17:30:34.664Z,94.30
2023-04-14T17:33:07.584Z,93.60
2023-04-14T17:35:35.404Z,94.20
2023-04-14T17:38:06.550Z,93.30
2023-04-14T17:40:36.658Z,92.70
2023-04-14T17:43:04.477Z,92.60
2023-04-14T17:45:34.413Z,92.60
2023-04-14T17:48:01.524Z,92.80
2023-04-14T17:50:29.581Z,92.80
2023-04-14T17:52:58.589Z,93.00
2023-04-14T17:55:25.911Z,92.90
2023-04-14T17:57:53.676Z,92.90
2023-04-14T18:00:20.557Z,93.30
2023-04-14T18:02:47.463Z,93.90
2023-04-14T18:05:15.247Z,94.10
2023-04-14T18:07:42.439Z,94.30
2023-04-14T18:10:09.754Z,95.30
2023-04-14T18:12:36.819Z,95.80
2023-04-14T18:15:05.476Z,96.30
2023-04-14T18:17:34.795Z,96.50
2023-04-14T18:20:01.708Z,96.40
2023-04-14T18:22:29.938Z,96.40
2023-04-14T18:24:56.977Z,97.10
2023-04-14T18:29:54.472Z,97.50
2023-04-14T18:32:22.318Z,97.90
2023-04-14T18:34:49.291Z,98.50
2023-04-14T18:37:15.994Z,99.10
2023-04-14T18:39:43.477Z,98.30
2023-04-14T18:42:11.324Z,98.30
2023-04-14T18:44:38.232Z,98.90
2023-04-14T18:47:05.281Z,99.10
2023-04-14T18:49:32.404Z,99.20
2023-04-14T18:51:59.378Z,99.90
2023-04-14T18:54:26.358Z,99.90
2023-04-14T18:56:53.057Z,99.90
2023-04-14T18:59:20.320Z,99.90
2023-04-14T19:01:47.325Z,99.90
2023-04-14T19:04:14.278Z,99.90
2023-04-14T19:06:42.107Z,99.90
2023-04-14T19:09:09.160Z,99.90
2023-04-14T19:11:36.802Z,99.90
2023-04-14T19:14:04.609Z,99.90
2023-04-14T19:16:31.924Z,99.90
2023-04-14T19:18:59.720Z,99.90
2023-04-14T19:21:26.819Z,99.90
2023-04-14T19:23:56.519Z,99.90
2023-04-14T19:26:24.095Z,99.90
2023-04-14T19:28:52.786Z,99.90
2023-04-14T19:31:21.322Z,99.90
2023-04-14T19:33:48.963Z,99.90
2023-04-14T19:36:16.591Z,99.90
2023-04-14T19:38:44.069Z,99.90
2023-04-14T19:41:11.275Z,99.90
2023-04-14T19:43:38.086Z,99.90
2023-04-14T19:46:07.223Z,99.90
2023-04-14T19:48:34.440Z,99.90
2023-04-14T19:51:02.060Z,99.90
2023-04-14T19:53:29.340Z,99.90
2023-04-14T19:55:58.090Z,99.90
2023-04-14T19:58:26.659Z,99.90
2023-04-14T20:00:55.743Z,99.90
2023-04-14T20:03:24.010Z,99.90
2023-04-14T20:05:55.605Z,99.90
2023-04-14T20:08:24.096Z,99.90
2023-04-14T20:10:53.112Z,99.90
2023-04-14T20:13:21.309Z,99.90
2023-04-14T20:15:49.251Z,99.90
2023-04-14T20:18:17.872Z,99.90
2023-04-14T20:20:46.124Z,99.90
2023-04-14T20:23:13.044Z,99.90
2023-04-14T20:25:40.194Z,99.90
2023-04-14T20:28:07.494Z,99.90
2023-04-14T20:30:34.293Z,99.90
2023-04-14T20:33:04.528Z,99.90
2023-04-14T20:35:36.201Z,99.90
2023-04-14T20:38:03.294Z,99.90
2023-04-14T20:40:30.991Z,99.90
2023-04-14T20:42:58.150Z,99.90
2023-04-14T20:45:25.199Z,99.90
2023-04-14T20:47:52.127Z,99.90
2023-04-14T20:50:19.165Z,99.90
2023-04-14T20:52:46.505Z,99.90
2023-04-14T20:55:13.761Z,99.90
2023-04-14T20:57:41.993Z,99.90
2023-04-14T21:00:10.232Z,99.90
2023-04-14T21:02:37.680Z,99.90
2023-04-14T21:05:05.800Z,99.90
2023-04-14T21:07:32.786Z,99.90
2023-04-14T21:09:59.564Z,99.90
2023-04-14T21:12:35.432Z,99.90
2023-04-14T21:15:48.555Z,99.90
2023-04-14T21:17:52.087Z,99.90
2023-04-14T21:20:18.868Z,99.90
2023-04-14T21:22:45.927Z,99.90
2023-04-14T21:25:12.996Z,99.90
2023-04-14T21:27:40.072Z,99.90
2023-04-14T21:30:09.127Z,99.90
2023-04-14T21:32:36.325Z,99.90
2023-04-14T21:35:03.260Z,99.90
2023-04-14T21:37:30.305Z,99.90
2023-04-14T21:39:59.059Z,99.90
2023-04-14T21:42:26.510Z,99.90
2023-04-14T21:44:54.151Z,99.90
2023-04-14T21:47:21.046Z,99.90
2023-04-14T21:49:47.922Z,99.90
2023-04-14T21:52:14.557Z,99.90
2023-04-14T21:54:43.587Z,99.90
2023-04-14T21:57:11.442Z,99.90
2023-04-14T21:59:38.153Z,99.90
2023-04-14T22:02:04.932Z,99.90
2023-04-14T22:04:36.344Z,99.90
2023-04-14T22:07:05.076Z,99.90
2023-04-14T22:09:33.187Z,99.90
2023-04-14T22:12:00.506Z,99.90
2023-04-14T22:14:27.645Z,99.90
2023-04-14T22:16:55.055Z,99.90
2023-04-14T22:19:22.178Z,99.90
2023-04-14T22:21:50.192Z,99.90
2023-04-14T22:24:18.491Z,99.90
2023-04-14T22:26:45.816Z,99.90
2023-04-14T22:29:12.670Z,99.90
2023-04-14T22:31:39.688Z,99.90
2023-04-14T22:34:06.682Z,99.90
2023-04-14T22:36:33.749Z,99.90
2023-04-14T22:39:01.306Z,99.90
2023-04-14T22:41:28.263Z,99.90
2023-04-14T22:43:55.373Z,99.90
2023-04-14T22:46:22.413Z,99.90
2023-04-14T22:48:49.102Z,99.90
2023-04-14T22:51:16.697Z,99.90
2023-04-14T22:53:43.531Z,99.90
2023-04-14T22:56:10.584Z,99.90
2023-04-14T22:58:40.568Z,99.90
2023-04-14T23:01:18.951Z,99.90
2023-04-14T23:03:50.961Z,99.90
2023-04-14T23:06:22.829Z,99.90
2023-04-14T23:08:50.897Z,99.90
2023-04-14T23:11:20.736Z,99.90
2023-04-14T23:13:49.044Z,99.90
2023-04-14T23:16:19.774Z,99.90
2023-04-14T23:18:51.737Z,99.90
2023-04-14T23:21:22.062Z,99.90
2023-04-14T23:23:49.656Z,99.90
2023-04-14T23:26:19.296Z,99.90
2023-04-14T23:28:46.117Z,99.90
2023-04-14T23:31:13.218Z,99.90
2023-04-14T23:33:40.636Z,99.90
2023-04-14T23:36:08.017Z,99.90
2023-04-14T23:38:34.997Z,99.90
2023-04-14T23:41:02.246Z,99.90
2023-04-14T23:43:29.262Z,99.90
2023-04-14T23:45:56.649Z,99.90
2023-04-14T23:48:23.969Z,99.90
2023-04-14T23:51:01.808Z,99.90
2023-04-14T23:53:37.842Z,99.90
2023-04-14T23:56:05.092Z,99.90
2023-04-14T23:58:32.482Z,99.90
